หน้าหลัก
METAR-TAF:

METAR-TAF

ท่าอากาศยาน :

Cobija, โบลิเวีย

ละติจูด: 11-02S, ลองจิจูด: 068-47W, ความสูง: 235 ม.

การสังเกตสภาพอากาศปัจจุบัน

รายงานได้ทำขึ้นเมื่อ 59 นาทีที่แล้ว ณ เวลา 23:00 UTC
ลมสงบ
อุณหภูมิ 29°C
ความชื้น 58%
ความกดอากาศ 1013 hPa
ทัศนวิสัย 10 กม. หรือมากกว่า

METAR: SLCO 192300Z 00000KT 9999 NSC 29/20 Q1013

เวลา: 19:59 (23:59 UTC)

การพยากรณ์

รายงานได้ทำขึ้นเมื่อ 1 ชั่วโมงและ 59 นาทีที่แล้ว ณ เวลา 22:00 UTC
การพยากรณ์มีผลตั้งแต่วันที่ 20 ณ เวลา 00 UTC จนถึงวันที่ 20 ณ เวลา 24 UTC
ลม นอตจากเหนือ
ทัศนวิสัย 10 กม. หรือมากกว่า
กำลังกลายเป็น
ตั้งแต่วันที่ 20 ณ เวลา 13 UTC จนถึงวันที่ 20 ณ เวลา 15 UTC
ลม 10 นอตจากใต้/ตะวันออกเฉียงใต้

TAF: SLCO 192200Z 2000/2024 00000KT 9999 NSC TX35/2019Z TN17/2011Z BECMG 2013/2015 15010KT

สังเกตการณ์สภาพอากาศและพยากรณ์อากาศของสนามบินมากกว่า 4000 แห่ง (รายงาน METAR และ TAF).

สถานีที่ดูได้จะแสดงไว้ด้วยจุดสีเหลืองและสีแดงบนแผนที่.

เลื่อนเมาส์ไปเหนือจุดเพื่อดูชื่อสถานี.

แล้วคลิกเพื่อดูสังเกตการณ์และการพยากรณ์สภาพอากาศ.

ในการเปลี่ยนแผนที่: คลิกที่ปุ่มสีเขียวที่มีกากบาทสีดำเพื่อซูมเข้า; ที่ปุ่มสีเขียวที่มีขีดเพื่อซูมออก; หรือที่ลูกศรสีเขียวเพื่อไปยังแผนที่ที่อยู่ติดกัน.


METAR-TAF: